Time;durP1;ratioP1;P1;durP2;ratioP2;P2;SDS_P1;SDS_P2;PMS_P1;PMS_P2;Temp;Humidity;BMP_temperature;BMP_pressure;BME280_temperature;BME280_humidity;BME280_pressure;Samples;Min_cycle;Max_cycle;Signal;HPM_P1;HPM_P2
2023/05/13 00:00:33;;;;;;;3.00;2.80;;;21.90;64.20;;;;;;5053043;28;20670;-43
2023/05/13 00:03:03;;;;;;;3.50;3.20;;;21.90;64.20;;;;;;5065001;28;20216;-43
2023/05/13 00:05:34;;;;;;;3.20;2.90;;;21.90;64.10;;;;;;5050278;28;20543;-45
2023/05/13 00:08:18;;;;;;;3.53;3.17;;;21.80;64.10;;;;;;5044827;28;20273;-43
2023/05/13 00:10:50;;;;;;;3.97;3.27;;;21.90;64.10;;;;;;5067869;28;20186;-43
2023/05/13 00:13:22;;;;;;;2.90;2.70;;;21.90;64.10;;;;;;5065861;28;20198;-44
2023/05/13 00:15:51;;;;;;;3.63;3.20;;;21.80;64.00;;;;;;5055181;28;20267;-43
2023/05/13 00:18:22;;;;;;;4.07;2.83;;;21.80;64.00;;;;;;5044826;28;20206;-43
2023/05/13 00:20:55;;;;;;;3.50;3.20;;;21.80;63.90;;;;;;5066270;28;20190;-44
2023/05/13 00:23:24;;;;;;;3.53;3.23;;;21.80;63.90;;;;;;5063896;28;20535;-44
2023/05/13 00:25:52;;;;;;;5.40;3.23;;;21.80;63.90;;;;;;5063188;28;20785;-44
2023/05/13 00:28:20;;;;;;;3.53;3.23;;;21.80;63.90;;;;;;5068116;28;20198;-44
2023/05/13 00:30:49;;;;;;;2.90;2.70;;;21.80;63.80;;;;;;5066404;28;20214;-44
2023/05/13 00:33:20;;;;;;;3.10;2.80;;;21.80;63.80;;;;;;5063985;28;20197;-44
2023/05/13 00:35:50;;;;;;;3.20;3.00;;;21.80;63.80;;;;;;5067168;28;20185;-44
2023/05/13 00:38:20;;;;;;;3.37;3.07;;;21.80;63.80;;;;;;5066792;28;20290;-44
2023/05/13 00:40:51;;;;;;;3.10;2.87;;;21.80;63.80;;;;;;5071783;28;20197;-44
2023/05/13 00:43:22;;;;;;;3.30;3.00;;;21.70;63.80;;;;;;5070379;28;20201;-44
2023/05/13 00:45:51;;;;;;;3.60;3.30;;;21.70;63.80;;;;;;5070734;28;20194;-44
2023/05/13 00:48:22;;;;;;;3.20;2.73;;;21.70;63.80;;;;;;5050759;28;20193;-44
2023/05/13 00:50:57;;;;;;;3.37;3.17;;;21.70;63.80;;;;;;5033772;28;20221;-42
2023/05/13 00:53:27;;;;;;;3.00;2.80;;;21.70;63.70;;;;;;5071750;28;20622;-44
2023/05/13 00:56:04;;;;;;;3.93;3.00;;;21.70;63.80;;;;;;5058836;28;20633;-43
2023/05/13 00:58:33;;;;;;;3.60;3.30;;;21.70;63.80;;;;;;5053962;28;20209;-44
2023/05/13 01:01:35;;;;;;;3.67;3.03;;;21.70;63.80;;;;;;5053936;28;20178;-44
2023/05/13 01:04:30;;;;;;;3.50;3.20;;;21.70;63.80;;;;;;5050362;28;20209;-44
2023/05/13 01:07:35;;;;;;;3.33;3.03;;;21.60;63.70;;;;;;5069151;28;20240;-44
2023/05/13 01:10:33;;;;;;;3.30;3.10;;;21.60;63.80;;;;;;5066477;28;20251;-44
2023/05/13 01:13:15;;;;;;;3.20;3.00;;;21.60;63.70;;;;;;5070279;28;20197;-43
2023/05/13 01:15:51;;;;;;;2.93;2.73;;;21.60;63.80;;;;;;5060199;28;20646;-44
2023/05/13 01:18:48;;;;;;;3.30;3.00;;;21.60;63.70;;;;;;5071015;28;20225;-44
2023/05/13 01:21:28;;;;;;;3.30;3.00;;;21.60;63.60;;;;;;5055180;28;20564;-44
2023/05/13 01:24:00;;;;;;;3.20;2.90;;;21.60;63.70;;;;;;5067812;28;20185;-44
2023/05/13 01:26:31;;;;;;;3.47;3.17;;;21.60;63.60;;;;;;5068306;28;20866;-44
2023/05/13 01:29:03;;;;;;;4.10;3.53;;;21.60;63.60;;;;;;5070904;28;20201;-44
2023/05/13 01:31:35;;;;;;;3.30;3.00;;;21.50;63.50;;;;;;5071166;28;20257;-44
2023/05/13 01:34:11;;;;;;;3.27;2.90;;;21.50;63.50;;;;;;5068111;28;20706;-44
2023/05/13 01:36:46;;;;;;;3.27;3.07;;;21.50;63.50;;;;;;5064013;28;20208;-43
2023/05/13 01:39:20;;;;;;;3.50;3.20;;;21.50;63.40;;;;;;5067238;28;20225;-44
2023/05/13 01:42:05;;;;;;;3.40;2.90;;;21.50;63.40;;;;;;5068419;28;20693;-44
2023/05/13 01:44:36;;;;;;;3.70;3.23;;;21.50;63.40;;;;;;5063231;28;20255;-44
2023/05/13 01:47:07;;;;;;;3.93;3.40;;;21.50;63.40;;;;;;5070691;28;20197;-44
2023/05/13 01:49:39;;;;;;;3.43;3.13;;;21.50;63.40;;;;;;5070118;28;20202;-44
2023/05/13 01:52:10;;;;;;;4.50;2.67;;;21.50;63.40;;;;;;5064644;28;20205;-43
2023/05/13 01:54:41;;;;;;;4.03;3.10;;;21.50;63.40;;;;;;5053226;28;20666;-44
2023/05/13 01:57:12;;;;;;;3.10;2.90;;;21.50;63.30;;;;;;5062601;28;20267;-44
2023/05/13 01:59:46;;;;;;;3.10;2.90;;;21.40;63.30;;;;;;5070597;28;20190;-43
2023/05/13 02:02:19;;;;;;;5.20;3.33;;;21.50;63.30;;;;;;5065481;28;20236;-44
2023/05/13 02:04:50;;;;;;;3.57;3.17;;;21.50;63.30;;;;;;5069832;28;20228;-44
2023/05/13 02:07:20;;;;;;;3.20;2.90;;;21.40;63.20;;;;;;5067090;28;20220;-44
2023/05/13 02:09:49;;;;;;;3.23;2.93;;;21.50;63.30;;;;;;5045983;28;20212;-43
2023/05/13 02:12:20;;;;;;;3.33;3.00;;;21.40;63.10;;;;;;5069871;28;20280;-44
2023/05/13 02:14:48;;;;;;;3.87;3.00;;;21.40;63.10;;;;;;5067696;28;20535;-43
2023/05/13 02:17:17;;;;;;;3.60;3.30;;;21.40;63.10;;;;;;5070525;28;20205;-44
2023/05/13 02:19:51;;;;;;;5.83;3.10;;;21.40;63.10;;;;;;5069904;28;20520;-43
2023/05/13 02:22:20;;;;;;;3.27;2.97;;;21.40;63.10;;;;;;5068943;28;20194;-44
2023/05/13 02:24:50;;;;;;;3.60;3.30;;;21.40;63.10;;;;;;5067578;28;20279;-43
2023/05/13 02:27:26;;;;;;;3.50;3.20;;;21.40;63.10;;;;;;5064789;28;20213;-44
2023/05/13 02:30:09;;;;;;;3.50;3.20;;;21.40;63.10;;;;;;5067593;28;20607;-43
2023/05/13 02:32:42;;;;;;;3.20;2.90;;;21.40;63.00;;;;;;5066074;28;20210;-43
2023/05/13 02:35:13;;;;;;;3.50;3.20;;;21.40;63.00;;;;;;5052139;28;20206;-44
2023/05/13 02:37:44;;;;;;;3.63;3.33;;;21.40;63.00;;;;;;5069845;28;20275;-43
2023/05/13 02:40:15;;;;;;;5.17;3.40;;;21.30;62.90;;;;;;5067144;28;20206;-44
2023/05/13 02:42:47;;;;;;;3.43;3.10;;;21.40;63.00;;;;;;5063306;28;20221;-45
2023/05/13 02:45:18;;;;;;;3.50;3.13;;;21.40;63.00;;;;;;5051660;28;20217;-44
2023/05/13 02:48:01;;;;;;;3.23;2.93;;;21.40;63.00;;;;;;5066432;28;20202;-45
2023/05/13 02:50:29;;;;;;;3.30;3.00;;;21.40;63.00;;;;;;5047246;28;20237;-44
2023/05/13 02:53:01;;;;;;;3.23;3.00;;;21.30;63.00;;;;;;5060861;28;20195;-44
2023/05/13 02:55:31;;;;;;;4.90;3.13;;;21.30;63.00;;;;;;5064052;28;20225;-44
2023/05/13 02:58:02;;;;;;;3.17;2.87;;;21.30;63.00;;;;;;5037478;28;20214;-44
2023/05/13 03:00:35;;;;;;;3.20;2.90;;;21.30;63.00;;;;;;5062888;28;20196;-44
2023/05/13 03:03:07;;;;;;;3.20;2.90;;;21.30;62.90;;;;;;5051345;28;20208;-44
2023/05/13 03:05:38;;;;;;;3.30;3.00;;;21.30;63.00;;;;;;5067203;28;20193;-43
2023/05/13 03:08:08;;;;;;;3.17;2.90;;;21.30;62.90;;;;;;5061169;28;20625;-44
2023/05/13 03:10:39;;;;;;;2.90;2.70;;;21.30;62.90;;;;;;5061800;28;20247;-44
2023/05/13 03:13:10;;;;;;;3.10;2.90;;;21.30;62.90;;;;;;5068430;28;20609;-43
2023/05/13 03:15:42;;;;;;;3.70;3.20;;;21.30;63.00;;;;;;5055679;28;20201;-44
2023/05/13 03:18:13;;;;;;;3.17;2.87;;;21.30;62.90;;;;;;5065823;28;20213;-44
2023/05/13 03:20:43;;;;;;;3.40;3.10;;;21.30;62.90;;;;;;5051311;28;20205;-43
2023/05/13 03:23:12;;;;;;;3.77;3.20;;;21.20;62.80;;;;;;5064161;28;20197;-44
2023/05/13 03:25:43;;;;;;;2.90;2.70;;;21.20;62.90;;;;;;5067982;28;20252;-44
2023/05/13 03:28:11;;;;;;;3.33;3.03;;;21.20;62.90;;;;;;5064429;28;20237;-44
2023/05/13 03:30:43;;;;;;;3.63;3.33;;;21.20;62.90;;;;;;5069033;28;20208;-43
2023/05/13 03:33:14;;;;;;;4.43;3.20;;;21.20;62.80;;;;;;5068635;28;20201;-44
2023/05/13 03:35:48;;;;;;;2.70;2.50;;;21.20;62.80;;;;;;5068560;28;20194;-44
2023/05/13 03:38:18;;;;;;;3.10;2.90;;;21.20;62.70;;;;;;5047654;28;20244;-44
2023/05/13 03:40:49;;;;;;;3.30;3.00;;;21.20;62.80;;;;;;5068829;28;20641;-43
2023/05/13 03:43:20;;;;;;;3.73;3.10;;;21.20;63.40;;;;;;5068205;28;20276;-44
2023/05/13 03:45:50;;;;;;;3.03;2.83;;;21.20;62.70;;;;;;5067353;28;20722;-43
2023/05/13 03:48:18;;;;;;;3.50;3.20;;;21.20;62.70;;;;;;5041409;28;20209;-43
2023/05/13 03:50:52;;;;;;;3.57;3.00;;;21.20;62.60;;;;;;5066071;28;20210;-43
2023/05/13 03:53:23;;;;;;;4.37;3.10;;;21.20;62.60;;;;;;5051671;28;20186;-43
2023/05/13 03:55:50;;;;;;;3.57;3.27;;;21.10;62.50;;;;;;5066972;28;20201;-43
2023/05/13 03:58:21;;;;;;;3.30;3.00;;;21.10;62.50;;;;;;5068045;28;20328;-43
2023/05/13 04:00:52;;;;;;;4.53;3.10;;;21.10;62.50;;;;;;5068256;28;20200;-44
2023/05/13 04:03:23;;;;;;;3.57;3.10;;;21.10;62.50;;;;;;5054838;28;20206;-44
2023/05/13 04:05:52;;;;;;;3.37;3.07;;;21.10;62.50;;;;;;5065807;28;20209;-44
2023/05/13 04:08:20;;;;;;;3.43;3.13;;;21.10;62.40;;;;;;5065663;28;20215;-44
2023/05/13 04:10:51;;;;;;;3.30;3.00;;;21.10;62.40;;;;;;5069002;28;20197;-43
2023/05/13 04:13:23;;;;;;;2.90;2.70;;;21.10;62.50;;;;;;5052085;28;20201;-44
2023/05/13 04:15:50;;;;;;;3.27;3.00;;;21.10;62.50;;;;;;5063245;28;20213;-43
2023/05/13 04:18:20;;;;;;;3.33;3.00;;;21.10;62.60;;;;;;5054102;28;20702;-43
2023/05/13 04:20:51;;;;;;;3.20;2.90;;;21.10;62.60;;;;;;5055557;28;20194;-43
2023/05/13 04:23:23;;;;;;;3.33;3.13;;;21.10;62.50;;;;;;5071262;28;20208;-43
2023/05/13 04:26:06;;;;;;;5.00;3.40;;;21.10;62.50;;;;;;5063961;28;20317;-43
2023/05/13 04:28:37;;;;;;;3.13;2.83;;;21.00;62.50;;;;;;5063635;28;20210;-43
2023/05/13 04:31:08;;;;;;;3.77;3.47;;;21.10;62.50;;;;;;5066341;28;20217;-43
2023/05/13 04:33:37;;;;;;;3.33;3.03;;;21.10;62.50;;;;;;5062261;28;20754;-44
2023/05/13 04:36:05;;;;;;;3.40;3.10;;;21.00;62.40;;;;;;5049203;28;20210;-44
2023/05/13 04:38:36;;;;;;;3.40;3.10;;;21.10;62.40;;;;;;5044996;28;20230;-44
2023/05/13 04:41:06;;;;;;;2.90;2.70;;;21.00;62.40;;;;;;5050984;28;20206;-43
2023/05/13 04:43:37;;;;;;;3.47;3.10;;;21.10;62.40;;;;;;5045219;28;20608;-43
2023/05/13 04:46:06;;;;;;;4.57;3.20;;;21.10;62.30;;;;;;5048342;28;20217;-43
2023/05/13 04:48:37;;;;;;;3.20;2.90;;;21.00;62.20;;;;;;5051925;28;20715;-42
2023/05/13 04:51:09;;;;;;;3.83;3.43;;;21.00;62.20;;;;;;5049169;28;20206;-43
2023/05/13 04:53:38;;;;;;;3.57;3.27;;;21.00;62.20;;;;;;5052528;28;20596;-43
2023/05/13 04:56:09;;;;;;;3.47;3.13;;;21.00;62.20;;;;;;5048699;28;20190;-43
2023/05/13 04:58:39;;;;;;;3.30;3.00;;;21.00;62.10;;;;;;5062687;28;20620;-43
2023/05/13 05:01:09;;;;;;;3.57;3.27;;;21.00;62.10;;;;;;5055514;28;20197;-43
2023/05/13 05:03:38;;;;;;;3.43;3.13;;;21.00;62.10;;;;;;5047855;28;20518;-43
2023/05/13 05:06:09;;;;;;;3.53;3.23;;;21.00;62.10;;;;;;5049288;28;20205;-43
2023/05/13 05:08:37;;;;;;;3.90;3.20;;;21.00;62.10;;;;;;5049570;28;20194;-43
2023/05/13 05:11:08;;;;;;;3.90;3.33;;;21.00;62.10;;;;;;5050964;28;20276;-43
2023/05/13 05:13:40;;;;;;;3.33;3.03;;;21.00;62.10;;;;;;5050246;28;20194;-43
2023/05/13 05:16:12;;;;;;;3.23;2.97;;;21.00;62.00;;;;;;5038071;28;20289;-43
2023/05/13 05:18:42;;;;;;;3.53;3.23;;;21.00;62.00;;;;;;5049829;28;20226;-43
2023/05/13 05:21:14;;;;;;;3.47;3.27;;;21.00;61.90;;;;;;5040384;28;20206;-43
2023/05/13 05:23:44;;;;;;;4.03;3.40;;;21.00;61.90;;;;;;5057812;28;20237;-43
2023/05/13 05:26:15;;;;;;;3.70;3.40;;;21.00;61.90;;;;;;5058233;28;20237;-44
2023/05/13 05:28:46;;;;;;;3.73;3.43;;;21.00;61.90;;;;;;5071309;28;20263;-43
2023/05/13 05:31:17;;;;;;;3.40;3.10;;;21.00;61.70;;;;;;5064578;28;20205;-43
2023/05/13 05:33:47;;;;;;;5.03;3.10;;;21.00;61.70;;;;;;5070973;28;20198;-43
2023/05/13 05:36:15;;;;;;;3.20;2.93;;;20.90;61.60;;;;;;5051876;28;20284;-43
2023/05/13 05:38:47;;;;;;;3.57;3.27;;;20.90;61.60;;;;;;5068084;28;20593;-44
2023/05/13 05:41:19;;;;;;;3.80;3.40;;;21.00;61.60;;;;;;5070812;28;20678;-45
2023/05/13 05:43:56;;;;;;;6.90;4.47;;;21.00;61.50;;;;;;5068740;28;20186;-44
2023/05/13 05:46:32;;;;;;;21.73;6.30;;;21.00;61.70;;;;;;5069345;28;20197;-44
2023/05/13 05:49:02;;;;;;;11.20;5.60;;;21.00;61.70;;;;;;5070779;28;20194;-44
2023/05/13 05:51:32;;;;;;;12.10;5.97;;;20.90;61.60;;;;;;5066198;28;20208;-43
2023/05/13 05:54:04;;;;;;;10.37;5.47;;;20.90;61.60;;;;;;5062410;28;20200;-43
2023/05/13 05:56:38;;;;;;;9.07;4.77;;;20.90;61.60;;;;;;5065394;28;20217;-45
2023/05/13 05:59:09;;;;;;;7.53;4.40;;;20.90;61.60;;;;;;5070167;28;20607;-44
2023/05/13 06:01:40;;;;;;;7.53;4.80;;;20.90;61.50;;;;;;5063770;28;20259;-44
2023/05/13 06:04:09;;;;;;;12.20;4.77;;;20.90;61.60;;;;;;5064659;28;20889;-44
2023/05/13 06:06:39;;;;;;;6.77;4.60;;;20.90;61.60;;;;;;5049713;28;20193;-45
2023/05/13 06:09:10;;;;;;;8.10;5.13;;;20.90;61.50;;;;;;5057865;28;20202;-45
2023/05/13 06:11:37;;;;;;;4.97;4.20;;;20.90;61.60;;;;;;5070728;28;20197;-44
2023/05/13 06:14:06;;;;;;;6.50;4.67;;;21.00;61.60;;;;;;5064510;28;20387;-44
2023/05/13 06:16:36;;;;;;;5.67;4.30;;;20.90;61.60;;;;;;5070308;28;20244;-44
2023/05/13 06:19:07;;;;;;;6.03;4.20;;;20.90;61.50;;;;;;5069531;28;20221;-44
2023/05/13 06:21:37;;;;;;;6.40;4.53;;;21.00;61.60;;;;;;5071220;28;20197;-44
2023/05/13 06:24:10;;;;;;;4.80;4.20;;;21.00;61.50;;;;;;5065333;28;20205;-44
2023/05/13 06:26:43;;;;;;;5.20;3.97;;;20.90;61.50;;;;;;5050529;28;20237;-44
2023/05/13 06:29:13;;;;;;;4.90;3.97;;;20.90;61.40;;;;;;5069334;28;20631;-44
2023/05/13 06:31:41;;;;;;;4.60;3.97;;;21.00;61.50;;;;;;5052087;28;20544;-44
2023/05/13 06:34:15;;;;;;;5.27;4.27;;;20.90;61.40;;;;;;5061215;28;20360;-44
2023/05/13 06:36:44;;;;;;;5.23;4.27;;;20.90;61.40;;;;;;5052767;28;20190;-44
2023/05/13 06:39:15;;;;;;;5.37;4.13;;;20.90;61.40;;;;;;5044909;28;20277;-44
2023/05/13 06:41:45;;;;;;;5.47;4.73;;;21.00;61.40;;;;;;5052825;28;20197;-44
2023/05/13 06:44:15;;;;;;;5.20;4.10;;;20.90;61.30;;;;;;5066493;28;20198;-43
2023/05/13 06:46:45;;;;;;;4.97;4.37;;;21.00;61.40;;;;;;5066535;28;20667;-44
2023/05/13 06:49:19;;;;;;;4.97;4.20;;;20.90;61.40;;;;;;5052637;28;20198;-44
2023/05/13 06:51:48;;;;;;;4.87;3.93;;;20.90;61.30;;;;;;5065803;28;20292;-44
2023/05/13 06:54:23;;;;;;;4.50;4.00;;;21.00;61.30;;;;;;5063580;28;20204;-43
2023/05/13 06:56:54;;;;;;;4.60;3.50;;;21.00;61.30;;;;;;5071356;28;20815;-44
2023/05/13 06:59:35;;;;;;;5.10;4.60;;;21.00;61.20;;;;;;5041119;28;20241;-44
2023/05/13 07:02:08;;;;;;;5.00;4.50;;;21.00;61.30;;;;;;5048099;28;20197;-44
2023/05/13 07:04:52;;;;;;;4.67;4.27;;;21.00;61.30;;;;;;5065448;28;20272;-44
2023/05/13 07:07:23;;;;;;;5.40;4.27;;;20.90;61.20;;;;;;5069438;28;20209;-44
2023/05/13 07:09:57;;;;;;;4.80;4.30;;;21.00;61.30;;;;;;5060616;28;20205;-43
2023/05/13 07:12:29;;;;;;;4.50;4.10;;;21.00;61.20;;;;;;5069029;28;20197;-43
2023/05/13 07:15:00;;;;;;;5.90;4.60;;;21.00;61.30;;;;;;5033313;28;20228;-43
2023/05/13 07:17:32;;;;;;;5.20;4.27;;;21.00;61.30;;;;;;5068560;28;20205;-43
2023/05/13 07:20:08;;;;;;;4.67;4.10;;;21.00;61.30;;;;;;5049662;28;20212;-43
2023/05/13 07:22:41;;;;;;;4.57;4.03;;;21.00;61.20;;;;;;5064567;28;20632;-43
2023/05/13 07:25:12;;;;;;;4.53;4.03;;;21.00;61.20;;;;;;5058824;28;20193;-43
2023/05/13 07:27:42;;;;;;;4.70;4.27;;;21.00;61.30;;;;;;5066214;28;20557;-43
2023/05/13 07:30:11;;;;;;;4.57;4.17;;;20.90;61.20;;;;;;5066758;28;20220;-43
2023/05/13 07:32:43;;;;;;;6.60;4.37;;;21.00;61.40;;;;;;5068079;28;20251;-43
2023/05/13 07:35:15;;;;;;;4.47;4.03;;;21.00;61.20;;;;;;5067329;28;20208;-43
2023/05/13 07:37:48;;;;;;;4.73;4.13;;;21.00;61.30;;;;;;5067460;28;20189;-43
2023/05/13 07:40:20;;;;;;;4.90;4.40;;;21.00;61.30;;;;;;5068393;28;20213;-44
2023/05/13 07:42:51;;;;;;;6.03;4.30;;;21.00;61.90;;;;;;5068586;28;20673;-44
2023/05/13 07:45:22;;;;;;;4.73;4.23;;;21.00;61.30;;;;;;5068027;28;20202;-43
2023/05/13 07:47:51;;;;;;;6.23;4.17;;;21.00;61.40;;;;;;5064506;28;20186;-43
2023/05/13 07:50:35;;;;;;;4.10;3.70;;;21.00;61.30;;;;;;5066196;28;20233;-44
2023/05/13 07:53:05;;;;;;;4.90;4.00;;;21.00;61.40;;;;;;5050374;28;20535;-44
2023/05/13 07:55:38;;;;;;;4.63;4.17;;;21.00;61.40;;;;;;5063858;28;20198;-45
2023/05/13 07:58:07;;;;;;;7.00;4.10;;;21.00;61.40;;;;;;5059925;28;20197;-44
2023/05/13 08:00:38;;;;;;;5.43;4.77;;;21.00;61.40;;;;;;5068224;28;20218;-43
2023/05/13 08:03:07;;;;;;;4.77;4.37;;;21.00;61.30;;;;;;5065864;28;20213;-44
2023/05/13 08:05:41;;;;;;;4.27;3.87;;;21.10;61.30;;;;;;5068145;28;20231;-44
2023/05/13 08:08:11;;;;;;;6.23;4.20;;;21.10;61.40;;;;;;5065781;28;20196;-44
2023/05/13 08:10:41;;;;;;;9.10;3.90;;;21.10;61.60;;;;;;5068443;28;20575;-44
2023/05/13 08:13:13;;;;;;;4.47;4.07;;;21.10;61.60;;;;;;5063533;28;20202;-44
2023/05/13 08:15:40;;;;;;;6.83;4.63;;;21.10;61.60;;;;;;5065022;28;20209;-44
2023/05/13 08:18:11;;;;;;;4.57;4.17;;;21.10;61.60;;;;;;5065736;28;20629;-43
2023/05/13 08:20:44;;;;;;;4.60;4.20;;;21.10;61.40;;;;;;5068928;28;20214;-44
2023/05/13 08:23:16;;;;;;;5.90;4.30;;;21.10;61.50;;;;;;5057704;28;20190;-45
2023/05/13 08:25:49;;;;;;;5.40;4.40;;;21.20;61.50;;;;;;5068175;28;20244;-44
2023/05/13 08:28:16;;;;;;;4.93;4.43;;;21.10;61.40;;;;;;5065460;28;20636;-44
2023/05/13 08:31:02;;;;;;;4.67;4.23;;;21.20;61.50;;;;;;5052864;28;20623;-44
2023/05/13 08:33:31;;;;;;;4.23;3.83;;;21.10;61.40;;;;;;5068790;28;20650;-44
2023/05/13 08:36:03;;;;;;;4.43;4.03;;;21.10;61.50;;;;;;5048849;28;20726;-44
2023/05/13 08:38:32;;;;;;;5.57;4.50;;;21.10;61.60;;;;;;5066771;28;20221;-43
2023/05/13 08:41:06;;;;;;;4.47;4.07;;;21.10;61.50;;;;;;5069303;28;20218;-44
2023/05/13 08:43:50;;;;;;;5.77;4.40;;;21.20;61.50;;;;;;5068029;28;20202;-43
2023/05/13 08:46:25;;;;;;;4.60;4.10;;;21.20;61.60;;;;;;5068119;28;20697;-43
2023/05/13 08:48:58;;;;;;;4.83;3.87;;;21.20;61.60;;;;;;5068487;28;20197;-43
2023/05/13 08:51:30;;;;;;;5.40;3.63;;;21.20;61.60;;;;;;5047317;28;20843;-44
2023/05/13 08:54:02;;;;;;;4.40;4.00;;;21.20;61.50;;;;;;5064794;28;20205;-44
2023/05/13 08:56:34;;;;;;;5.03;4.30;;;21.20;61.60;;;;;;5035763;28;20259;-44
2023/05/13 08:59:06;;;;;;;4.93;4.43;;;21.20;62.10;;;;;;5065568;28;20205;-44
2023/05/13 09:01:38;;;;;;;4.60;4.17;;;21.20;61.50;;;;;;5070461;28;20722;-43
2023/05/13 09:04:10;;;;;;;4.97;4.20;;;21.20;61.50;;;;;;5027515;28;20272;-44
2023/05/13 09:06:40;;;;;;;5.43;3.97;;;21.30;61.60;;;;;;5038628;28;20252;-45
2023/05/13 09:09:12;;;;;;;5.57;4.00;;;21.30;62.30;;;;;;5053702;28;20643;-46
2023/05/13 09:11:45;;;;;;;4.40;4.00;;;21.30;61.60;;;;;;5067679;28;20201;-43
2023/05/13 09:14:18;;;;;;;4.33;3.93;;;21.30;61.60;;;;;;5069676;28;20216;-43
2023/05/13 09:16:49;;;;;;;4.10;3.70;;;21.30;61.60;;;;;;5054278;28;20654;-43
2023/05/13 09:19:22;;;;;;;4.17;3.57;;;21.30;61.60;;;;;;5055464;28;20220;-43
2023/05/13 09:21:53;;;;;;;4.60;4.20;;;21.30;61.50;;;;;;5061950;28;20190;-43
2023/05/13 09:24:22;;;;;;;4.37;3.97;;;21.40;61.60;;;;;;5026754;28;20205;-43
2023/05/13 09:26:52;;;;;;;4.40;4.00;;;21.30;61.50;;;;;;5049672;28;20237;-43
2023/05/13 09:29:32;;;;;;;4.20;3.80;;;21.30;61.60;;;;;;5069814;28;20206;-44
2023/05/13 09:32:17;;;;;;;4.30;3.90;;;21.40;61.50;;;;;;5061257;28;20189;-43
2023/05/13 09:34:49;;;;;;;5.50;4.30;;;21.30;61.60;;;;;;5071017;28;20194;-44
2023/05/13 09:37:24;;;;;;;4.00;3.70;;;21.40;61.60;;;;;;5072766;28;20198;-43
2023/05/13 09:39:51;;;;;;;4.97;4.37;;;21.40;61.70;;;;;;5049942;28;20214;-44
2023/05/13 09:42:27;;;;;;;4.33;3.93;;;21.40;61.60;;;;;;5054093;28;20270;-44
2023/05/13 09:45:08;;;;;;;3.87;3.57;;;21.40;61.50;;;;;;5068787;28;20217;-42
2023/05/13 09:47:40;;;;;;;4.73;4.33;;;21.40;61.50;;;;;;5069172;28;20189;-43
2023/05/13 09:50:11;;;;;;;5.03;4.40;;;21.40;61.40;;;;;;5047803;28;20210;-43
2023/05/13 09:52:40;;;;;;;4.90;4.50;;;21.40;61.40;;;;;;5069279;28;20225;-44
2023/05/13 09:55:14;;;;;;;4.60;4.20;;;21.40;61.10;;;;;;5049509;28;20202;-44
2023/05/13 09:57:45;;;;;;;4.40;4.10;;;21.40;61.30;;;;;;5064582;28;20201;-43
2023/05/13 10:00:17;;;;;;;4.83;4.40;;;21.40;61.50;;;;;;5060883;28;20232;-43
2023/05/13 10:03:03;;;;;;;4.67;4.27;;;21.40;61.50;;;;;;5059875;28;20213;-45
2023/05/13 10:05:35;;;;;;;4.93;4.30;;;21.50;61.60;;;;;;5069595;28;20204;-44
2023/05/13 10:08:09;;;;;;;5.00;4.60;;;21.50;61.60;;;;;;5051314;28;20240;-45
2023/05/13 10:10:44;;;;;;;5.10;4.70;;;21.50;61.60;;;;;;5038715;28;20225;-43
2023/05/13 10:13:23;;;;;;;4.17;3.77;;;21.50;61.60;;;;;;5068255;28;20295;-43
2023/05/13 10:16:03;;;;;;;4.20;3.90;;;21.50;61.70;;;;;;5058864;28;20220;-43
2023/05/13 10:18:33;;;;;;;4.93;4.43;;;21.50;61.50;;;;;;5072010;28;20668;-44
2023/05/13 10:21:03;;;;;;;6.00;4.07;;;21.60;61.60;;;;;;5043441;28;20555;-44
2023/05/13 10:23:33;;;;;;;4.30;3.90;;;21.60;61.70;;;;;;5063739;28;20392;-45
2023/05/13 10:26:05;;;;;;;4.23;3.83;;;21.60;61.80;;;;;;5040646;28;20230;-45
2023/05/13 10:28:42;;;;;;;4.40;4.00;;;21.60;61.90;;;;;;5037681;28;20201;-44
2023/05/13 10:31:12;;;;;;;4.40;4.00;;;21.60;61.80;;;;;;5050498;28;20203;-43
2023/05/13 10:33:44;;;;;;;3.93;3.50;;;21.60;62.00;;;;;;5067965;28;20209;-43
2023/05/13 10:36:42;;;;;;;4.10;3.70;;;21.60;62.00;;;;;;5046916;28;20195;-43
2023/05/13 10:39:51;;;;;;;3.73;3.43;;;21.60;62.00;;;;;;5059123;28;20637;-44
2023/05/13 10:42:24;;;;;;;3.53;3.23;;;21.70;62.10;;;;;;5066689;28;20686;-43
2023/05/13 10:44:54;;;;;;;3.53;3.23;;;21.70;61.90;;;;;;5064100;28;20744;-43
2023/05/13 10:47:26;;;;;;;3.53;3.23;;;21.70;62.30;;;;;;5052378;28;20215;-43
2023/05/13 10:49:57;;;;;;;3.63;3.33;;;21.70;62.00;;;;;;5052624;28;20603;-44
2023/05/13 10:52:45;;;;;;;3.87;3.57;;;21.70;62.10;;;;;;5056848;28;20671;-44
2023/05/13 10:55:23;;;;;;;3.43;3.13;;;21.80;62.20;;;;;;5024816;28;20199;-44
2023/05/13 10:58:14;;;;;;;3.80;3.50;;;21.70;62.30;;;;;;5056478;28;20194;-43
2023/05/13 11:00:44;;;;;;;4.50;3.60;;;21.80;62.10;;;;;;5067123;28;20236;-44
2023/05/13 11:03:29;;;;;;;4.03;3.73;;;21.80;62.40;;;;;;5052384;28;20208;-44
2023/05/13 11:06:37;;;;;;;3.80;3.50;;;21.80;62.00;;;;;;5047573;28;20190;-44
2023/05/13 11:09:31;;;;;;;3.97;3.57;;;21.80;62.30;;;;;;5063142;28;20185;-43
2023/05/13 11:12:05;;;;;;;3.57;3.30;;;21.80;62.40;;;;;;5057556;28;20190;-44
2023/05/13 11:14:35;;;;;;;3.90;3.50;;;21.80;62.30;;;;;;5065789;28;20217;-44
2023/05/13 11:17:09;;;;;;;3.60;3.23;;;21.80;62.10;;;;;;5059463;28;20200;-44
2023/05/13 11:19:46;;;;;;;3.50;3.20;;;21.90;62.20;;;;;;5049832;28;20211;-43
2023/05/13 11:22:23;;;;;;;3.63;3.20;;;21.90;62.30;;;;;;5062029;28;20189;-43
2023/05/13 11:25:06;;;;;;;3.83;3.50;;;21.90;62.10;;;;;;5069099;28;20193;-43
2023/05/13 11:27:40;;;;;;;3.77;3.47;;;21.90;62.10;;;;;;5057322;28;20229;-43
2023/05/13 11:30:29;;;;;;;4.17;3.77;;;21.90;62.20;;;;;;5050598;28;20216;-43
2023/05/13 11:33:01;;;;;;;3.67;3.37;;;22.00;62.40;;;;;;5052713;28;20880;-44
2023/05/13 11:35:34;;;;;;;4.10;3.60;;;22.00;62.20;;;;;;5069228;28;20212;-43
2023/05/13 11:38:05;;;;;;;4.03;3.47;;;22.00;61.90;;;;;;5067039;28;20198;-44
2023/05/13 11:40:37;;;;;;;4.00;3.60;;;22.00;62.10;;;;;;5066879;28;20249;-44
2023/05/13 11:43:08;;;;;;;3.50;3.20;;;22.00;62.10;;;;;;5049198;28;20220;-43
2023/05/13 11:45:39;;;;;;;3.60;3.30;;;22.10;62.20;;;;;;5052785;28;20205;-44
2023/05/13 11:48:23;;;;;;;3.77;3.47;;;22.10;62.10;;;;;;5066309;28;20189;-44
2023/05/13 11:50:56;;;;;;;3.83;3.27;;;22.10;62.30;;;;;;5052027;28;20189;-43
2023/05/13 11:53:27;;;;;;;4.27;3.87;;;22.10;61.70;;;;;;5048106;28;20209;-43
2023/05/13 11:56:10;;;;;;;3.73;2.90;;;22.10;62.10;;;;;;5065599;28;20351;-44
2023/05/13 11:58:39;;;;;;;3.93;3.27;;;22.10;62.20;;;;;;5050538;28;20205;-44
2023/05/13 12:01:12;;;;;;;3.47;3.17;;;22.20;61.90;;;;;;5047887;28;20287;-43
2023/05/13 12:03:44;;;;;;;3.30;3.10;;;22.20;62.00;;;;;;5047960;28;20201;-43
2023/05/13 12:06:11;;;;;;;3.33;3.00;;;22.20;61.50;;;;;;5063320;28;20213;-44
2023/05/13 12:08:45;;;;;;;4.70;3.30;;;22.20;61.60;;;;;;5050407;28;20212;-44
2023/05/13 12:11:16;;;;;;;3.10;2.90;;;22.20;61.90;;;;;;5068364;28;20645;-44
2023/05/13 12:13:46;;;;;;;3.90;3.50;;;22.20;61.90;;;;;;5067813;28;20499;-43
2023/05/13 12:16:19;;;;;;;3.40;3.10;;;22.30;61.70;;;;;;5065777;28;20209;-43
2023/05/13 12:19:02;;;;;;;3.27;3.07;;;22.20;61.60;;;;;;5069245;28;20198;-44
2023/05/13 12:21:35;;;;;;;3.93;3.07;;;22.30;61.70;;;;;;5050538;28;20304;-44
2023/05/13 12:24:22;;;;;;;3.03;2.73;;;22.30;61.50;;;;;;5044348;28;20252;-44
2023/05/13 12:26:51;;;;;;;4.13;3.20;;;22.30;61.50;;;;;;5041130;28;20667;-44
2023/05/13 12:29:21;;;;;;;3.33;3.00;;;22.30;61.50;;;;;;5061424;28;20214;-44
2023/05/13 12:32:08;;;;;;;5.70;3.40;;;22.30;61.50;;;;;;5067725;28;20190;-44
2023/05/13 12:34:37;;;;;;;3.10;2.87;;;22.30;61.30;;;;;;5070286;28;20651;-44
2023/05/13 12:37:12;;;;;;;3.67;3.07;;;22.40;61.60;;;;;;5055009;28;20194;-43
2023/05/13 12:39:42;;;;;;;3.60;3.30;;;22.40;61.70;;;;;;5038161;28;20215;-43
2023/05/13 12:42:17;;;;;;;3.30;3.00;;;22.40;62.00;;;;;;5049304;28;20440;-43
2023/05/13 12:44:48;;;;;;;3.30;3.00;;;22.40;61.50;;;;;;5038483;28;20224;-43
2023/05/13 12:47:22;;;;;;;3.67;3.07;;;22.40;61.80;;;;;;5071971;28;20752;-43
2023/05/13 12:49:57;;;;;;;3.67;3.30;;;22.50;62.00;;;;;;5069683;28;20193;-43
2023/05/13 12:52:31;;;;;;;3.27;2.93;;;22.50;61.80;;;;;;5051875;28;20198;-43
2023/05/13 12:55:04;;;;;;;4.10;3.53;;;22.50;61.90;;;;;;5071501;28;20189;-42
2023/05/13 12:57:41;;;;;;;3.40;3.00;;;22.50;62.00;;;;;;5054844;28;20233;-44
2023/05/13 13:00:13;;;;;;;4.10;3.03;;;22.50;61.60;;;;;;5037999;28;20655;-44
2023/05/13 13:02:43;;;;;;;3.60;3.30;;;22.50;61.20;;;;;;5071030;28;20190;-45
2023/05/13 13:05:14;;;;;;;3.20;2.90;;;22.50;61.50;;;;;;5066004;28;20540;-43
2023/05/13 13:07:43;;;;;;;3.83;3.00;;;22.60;61.70;;;;;;5072044;28;20201;-44
2023/05/13 13:10:15;;;;;;;3.23;3.03;;;22.60;62.00;;;;;;5069184;28;20908;-43
2023/05/13 13:12:48;;;;;;;2.93;2.63;;;22.60;61.90;;;;;;5071626;28;20196;-43
2023/05/13 13:15:21;;;;;;;3.67;2.93;;;22.60;61.80;;;;;;5071938;28;20197;-42